Alma, Michigan
Current Conditions -  °F | °C
As of 7:33 AM on Sunday 23 Nov 2014 (Local Time) from KAMN Reporting Station
Overcast Overcast  
Wind Chill: 43°   Ceiling: 5000
Heat Index: 47°   Visibility: 7mi
Dew Point: 45°   Wind: 8mph
Humidity: 93%   Direction: 190°S
Pressure: 29.83"   Gusts: NA
Location:  43.38°N, 84.66°W
Report Text: KAMN 231233Z AUTO 19007KT 7SM SCT013 SCT034 OVC050 08/07 A2983 RMK AO2 T00820072
Loading
Personal Weather Stations






























Interactive Weather Map New forecast layout! Learn more

10-Day Weather Forecast

Advertisements
Track Severe Weather on mobile